Time;durP1;ratioP1;P1;durP2;ratioP2;P2;SDS_P1;SDS_P2;PMS_P1;PMS_P2;Temp;Humidity;BMP_temperature;BMP_pressure;BME280_temperature;BME280_humidity;BME280_pressure;Samples;Min_cycle;Max_cycle;Signal;HPM_P1;HPM_P2
2022/07/04 00:01:50;;;;;;;2.30;0.90;;;;;;;;;;4999217;28;20262;-60
2022/07/04 00:04:18;;;;;;;4.03;0.90;;;;;;;;;;5005890;28;20224;-60
2022/07/04 00:06:46;;;;;;;1.73;0.83;;;;;;;;;;5018917;28;20208;-60
2022/07/04 00:09:15;;;;;;;0.60;0.60;;;;;;;;;;5018219;28;20645;-60
2022/07/04 00:11:43;;;;;;;0.80;0.80;;;;;;;;;;5018364;28;20211;-60
2022/07/04 00:14:11;;;;;;;1.20;1.10;;;;;;;;;;5018310;28;20270;-60
2022/07/04 00:16:39;;;;;;;1.07;1.00;;;;;;;;;;5018658;28;20235;-60
2022/07/04 00:19:07;;;;;;;1.70;1.07;;;;;;;;;;5009480;28;20238;-60
2022/07/04 00:21:35;;;;;;;2.30;0.77;;;;;;;;;;4999020;28;20215;-60
2022/07/04 00:24:03;;;;;;;3.20;1.77;;;;;;;;;;5002447;28;20235;-60
2022/07/04 00:26:32;;;;;;;4.00;0.90;;;;;;;;;;4998793;28;20239;-60
2022/07/04 00:29:00;;;;;;;0.80;0.70;;;;;;;;;;4998755;28;20245;-60
2022/07/04 00:31:28;;;;;;;2.30;0.90;;;;;;;;;;4998695;28;20209;-60
2022/07/04 00:33:56;;;;;;;1.27;0.80;;;;;;;;;;5005986;28;20844;-60
2022/07/04 00:36:24;;;;;;;1.13;0.70;;;;;;;;;;5002482;28;20243;-60
2022/07/04 00:38:52;;;;;;;2.40;0.80;;;;;;;;;;4998629;28;20273;-60
2022/07/04 00:41:20;;;;;;;2.97;0.90;;;;;;;;;;4998355;28;20222;-60
2022/07/04 00:44:01;;;;;;;2.23;1.00;;;;;;;;;;4998299;28;20260;-60
2022/07/04 00:46:39;;;;;;;0.57;0.57;;;;;;;;;;5007358;28;20213;-60
2022/07/04 00:49:08;;;;;;;2.57;1.20;;;;;;;;;;5018264;28;20207;-60
2022/07/04 00:51:37;;;;;;;1.73;0.70;;;;;;;;;;5017867;28;20250;-60
2022/07/04 00:54:06;;;;;;;1.20;0.60;;;;;;;;;;5017995;28;20235;-60
2022/07/04 00:56:35;;;;;;;1.70;0.80;;;;;;;;;;5018094;28;20240;-60
2022/07/04 00:59:05;;;;;;;2.37;1.20;;;;;;;;;;5017376;28;20268;-60
2022/07/04 01:01:35;;;;;;;2.10;1.00;;;;;;;;;;5017922;28;20300;-60
2022/07/04 01:04:04;;;;;;;2.63;1.10;;;;;;;;;;5017947;28;20268;-60
2022/07/04 01:06:32;;;;;;;5.60;1.20;;;;;;;;;;5017995;28;20294;-60
2022/07/04 01:09:00;;;;;;;1.93;0.90;;;;;;;;;;5017979;28;20245;-60
2022/07/04 01:11:28;;;;;;;1.97;0.90;;;;;;;;;;5018004;28;20230;-60
2022/07/04 01:13:56;;;;;;;2.10;1.00;;;;;;;;;;5017571;28;20230;-60
2022/07/04 01:16:27;;;;;;;0.90;0.80;;;;;;;;;;5017800;28;20231;-60
2022/07/04 01:18:55;;;;;;;1.33;0.93;;;;;;;;;;4998298;28;20209;-60
2022/07/04 01:21:25;;;;;;;4.47;1.10;;;;;;;;;;4997809;28;20215;-60
2022/07/04 01:23:53;;;;;;;0.83;0.60;;;;;;;;;;5002200;28;20249;-60
2022/07/04 01:26:22;;;;;;;2.67;1.03;;;;;;;;;;4997843;28;20280;-60
2022/07/04 01:28:50;;;;;;;1.87;0.80;;;;;;;;;;4997917;28;20219;-60
2022/07/04 01:31:18;;;;;;;2.27;0.80;;;;;;;;;;4997757;28;20235;-60
2022/07/04 01:33:46;;;;;;;1.67;0.97;;;;;;;;;;5002855;28;20236;-60
2022/07/04 01:36:14;;;;;;;0.97;0.80;;;;;;;;;;5004354;28;20253;-60
2022/07/04 01:38:43;;;;;;;0.63;0.60;;;;;;;;;;4997881;28;20640;-60
2022/07/04 01:41:11;;;;;;;3.10;1.00;;;;;;;;;;4997897;28;20220;-60
2022/07/04 01:43:39;;;;;;;0.70;0.70;;;;;;;;;;4997779;28;20253;-60
2022/07/04 01:46:07;;;;;;;2.50;1.10;;;;;;;;;;4998036;28;20213;-60
2022/07/04 01:48:35;;;;;;;2.20;0.90;;;;;;;;;;4998053;28;20298;-60
2022/07/04 01:51:03;;;;;;;1.00;0.80;;;;;;;;;;4997564;28;20214;-60
2022/07/04 01:53:31;;;;;;;1.20;0.90;;;;;;;;;;4997922;28;20283;-60
2022/07/04 01:56:01;;;;;;;3.53;1.20;;;;;;;;;;4997524;28;20288;-60
2022/07/04 01:58:29;;;;;;;0.80;0.80;;;;;;;;;;4997392;28;20302;-60
2022/07/04 02:03:42;;;;;;;1.57;0.83;;;;;;;;;;4999408;28;20258;-60
2022/07/04 02:06:10;;;;;;;2.37;0.90;;;;;;;;;;5001379;28;20234;-60
2022/07/04 02:11:25;;;;;;;1.77;1.10;;;;;;;;;;5008381;28;20661;-60
2022/07/04 02:13:52;;;;;;;1.70;0.80;;;;;;;;;;5006591;28;20231;-60
2022/07/04 02:16:20;;;;;;;3.60;1.00;;;;;;;;;;5014544;28;20229;-60
2022/07/04 02:18:48;;;;;;;1.57;1.00;;;;;;;;;;5016253;28;20213;-60
2022/07/04 02:21:16;;;;;;;3.70;1.40;;;;;;;;;;5016165;28;20234;-60
2022/07/04 02:23:44;;;;;;;2.53;1.00;;;;;;;;;;5016751;28;20262;-60
2022/07/04 02:26:12;;;;;;;1.10;1.00;;;;;;;;;;5013328;28;20206;-60
2022/07/04 02:28:42;;;;;;;3.63;1.30;;;;;;;;;;5006404;28;20202;-60
2022/07/04 02:31:10;;;;;;;0.80;0.80;;;;;;;;;;5009870;28;20214;-60
2022/07/04 02:33:38;;;;;;;5.43;1.87;;;;;;;;;;5006349;28;20230;-60
2022/07/04 02:36:06;;;;;;;1.33;1.10;;;;;;;;;;5011861;28;20281;-60
2022/07/04 02:38:34;;;;;;;2.10;1.00;;;;;;;;;;5004304;28;20218;-61
2022/07/04 02:41:02;;;;;;;1.73;0.70;;;;;;;;;;5006484;28;20213;-61
2022/07/04 02:43:30;;;;;;;0.87;0.80;;;;;;;;;;5000027;28;20226;-60
2022/07/04 02:45:59;;;;;;;1.77;0.90;;;;;;;;;;5000649;28;20681;-60
2022/07/04 02:48:27;;;;;;;2.57;1.00;;;;;;;;;;5000520;28;20592;-60
2022/07/04 02:50:55;;;;;;;0.77;0.77;;;;;;;;;;5000395;28;20624;-60
2022/07/04 02:53:23;;;;;;;2.23;1.30;;;;;;;;;;5000665;28;20234;-60
2022/07/04 02:55:51;;;;;;;1.97;1.23;;;;;;;;;;5000174;28;20266;-60
2022/07/04 02:58:19;;;;;;;1.77;1.00;;;;;;;;;;5020320;28;20347;-60
2022/07/04 03:00:47;;;;;;;1.53;0.83;;;;;;;;;;5024989;28;20250;-60
2022/07/04 03:03:17;;;;;;;1.17;1.00;;;;;;;;;;5028784;28;20216;-60
2022/07/04 03:05:45;;;;;;;1.53;0.90;;;;;;;;;;5026584;28;20227;-60
2022/07/04 03:08:13;;;;;;;4.13;1.30;;;;;;;;;;5025581;28;20209;-60
2022/07/04 03:10:41;;;;;;;1.30;1.10;;;;;;;;;;5021309;28;20210;-60
2022/07/04 03:13:09;;;;;;;1.20;1.10;;;;;;;;;;5022691;28;20222;-60
2022/07/04 03:15:37;;;;;;;3.60;1.67;;;;;;;;;;5026667;28;20223;-60
2022/07/04 03:18:05;;;;;;;3.37;1.40;;;;;;;;;;5026366;28;20240;-60
2022/07/04 03:20:34;;;;;;;1.10;1.00;;;;;;;;;;5024981;28;20245;-60
2022/07/04 03:23:02;;;;;;;1.73;1.00;;;;;;;;;;5025251;28;20226;-60
2022/07/04 03:25:30;;;;;;;1.57;0.90;;;;;;;;;;5022771;28;20213;-60
2022/07/04 03:27:58;;;;;;;3.27;1.00;;;;;;;;;;5023855;28;20211;-60
2022/07/04 03:30:26;;;;;;;2.10;1.03;;;;;;;;;;5019548;28;20254;-60
2022/07/04 03:32:54;;;;;;;2.83;1.00;;;;;;;;;;4999227;28;20218;-61
2022/07/04 03:35:22;;;;;;;2.47;1.10;;;;;;;;;;5012643;28;20209;-61
2022/07/04 03:37:52;;;;;;;3.67;1.00;;;;;;;;;;4999404;28;20669;-61
2022/07/04 03:40:20;;;;;;;2.33;0.70;;;;;;;;;;5006685;28;20257;-60
2022/07/04 03:42:48;;;;;;;1.63;0.97;;;;;;;;;;5000468;28;20210;-60
2022/07/04 03:45:16;;;;;;;3.47;1.10;;;;;;;;;;4999138;28;20260;-60
2022/07/04 03:47:44;;;;;;;4.90;0.90;;;;;;;;;;4999391;28;20265;-61
2022/07/04 03:50:12;;;;;;;1.80;0.90;;;;;;;;;;4999379;28;20263;-60
2022/07/04 03:52:40;;;;;;;1.90;0.90;;;;;;;;;;4999380;28;20237;-60
2022/07/04 03:55:10;;;;;;;1.23;0.83;;;;;;;;;;4999180;28;20729;-60
2022/07/04 03:57:38;;;;;;;4.07;1.47;;;;;;;;;;5005512;28;20695;-60
2022/07/04 04:00:07;;;;;;;1.93;1.20;;;;;;;;;;5018615;28;20638;-60
2022/07/04 04:02:35;;;;;;;2.30;1.00;;;;;;;;;;5018610;28;20579;-60
2022/07/04 04:07:49;;;;;;;1.53;1.00;;;;;;;;;;5018218;28;20256;-60
2022/07/04 04:10:18;;;;;;;2.40;0.93;;;;;;;;;;5017597;28;20239;-61
2022/07/04 04:12:47;;;;;;;1.90;0.80;;;;;;;;;;5016970;28;20225;-60
2022/07/04 04:15:14;;;;;;;3.93;1.00;;;;;;;;;;5016440;28;20242;-61
2022/07/04 04:17:42;;;;;;;1.70;1.10;;;;;;;;;;5016765;28;20220;-61
2022/07/04 04:20:11;;;;;;;4.10;0.90;;;;;;;;;;4997885;28;20262;-60
2022/07/04 04:22:39;;;;;;;2.43;0.83;;;;;;;;;;4997297;28;20242;-60
2022/07/04 04:25:07;;;;;;;2.60;0.87;;;;;;;;;;4997479;28;20642;-60
2022/07/04 04:27:36;;;;;;;1.17;0.60;;;;;;;;;;4998127;28;20225;-60
2022/07/04 04:30:05;;;;;;;4.27;0.97;;;;;;;;;;5005452;28;20242;-60
2022/07/04 04:32:33;;;;;;;3.30;1.00;;;;;;;;;;5014286;28;20688;-58
2022/07/04 04:35:01;;;;;;;0.93;0.93;;;;;;;;;;5014079;28;20263;-59
2022/07/04 04:37:29;;;;;;;2.20;1.07;;;;;;;;;;4998468;28;20236;-60
2022/07/04 04:39:57;;;;;;;3.03;1.20;;;;;;;;;;5016526;28;20252;-60
2022/07/04 04:42:25;;;;;;;2.63;1.00;;;;;;;;;;5004117;28;20205;-59
2022/07/04 04:44:55;;;;;;;1.70;1.00;;;;;;;;;;4998314;28;20261;-60
2022/07/04 04:47:23;;;;;;;4.13;1.10;;;;;;;;;;4999168;28;20255;-60
2022/07/04 04:49:51;;;;;;;2.20;1.80;;;;;;;;;;4998447;28;20209;-60
2022/07/04 04:52:19;;;;;;;1.63;0.90;;;;;;;;;;5008115;28;20202;-60
2022/07/04 04:54:47;;;;;;;1.83;0.90;;;;;;;;;;4998331;28;20237;-60
2022/07/04 04:57:15;;;;;;;1.30;1.07;;;;;;;;;;5009946;28;20266;-60
2022/07/04 04:59:43;;;;;;;1.37;0.97;;;;;;;;;;4998231;28;20214;-60
2022/07/04 05:02:12;;;;;;;1.47;0.80;;;;;;;;;;4998474;28;20244;-59
2022/07/04 05:04:43;;;;;;;1.80;1.00;;;;;;;;;;4998060;28;20251;-59
2022/07/04 05:07:12;;;;;;;1.90;0.97;;;;;;;;;;4998002;28;20210;-60
2022/07/04 05:09:40;;;;;;;3.03;1.30;;;;;;;;;;4998351;28;20217;-59
2022/07/04 05:12:08;;;;;;;3.27;1.20;;;;;;;;;;4998002;28;20211;-60
2022/07/04 05:14:36;;;;;;;3.03;1.07;;;;;;;;;;4997865;28;20236;-60
2022/07/04 05:17:04;;;;;;;1.33;0.80;;;;;;;;;;4998024;28;20253;-59
2022/07/04 05:19:34;;;;;;;1.23;0.80;;;;;;;;;;5001424;28;20682;-60
2022/07/04 05:22:01;;;;;;;0.90;0.90;;;;;;;;;;4998240;28;20242;-60
2022/07/04 05:24:29;;;;;;;3.97;1.07;;;;;;;;;;5022909;28;20227;-60
2022/07/04 05:26:57;;;;;;;3.13;0.87;;;;;;;;;;5022833;28;20210;-60
2022/07/04 05:29:25;;;;;;;1.93;0.80;;;;;;;;;;5021870;28;20225;-60
2022/07/04 05:31:53;;;;;;;1.90;1.10;;;;;;;;;;5020923;28;20236;-60
2022/07/04 05:34:22;;;;;;;2.63;1.00;;;;;;;;;;5030941;28;20710;-60
2022/07/04 05:36:51;;;;;;;2.40;1.00;;;;;;;;;;5023054;28;20201;-60
2022/07/04 05:39:19;;;;;;;1.00;0.90;;;;;;;;;;5024185;28;20202;-60
2022/07/04 05:41:47;;;;;;;4.23;0.80;;;;;;;;;;5025925;28;20211;-60
2022/07/04 05:44:15;;;;;;;5.83;1.53;;;;;;;;;;5029898;28;20314;-60
2022/07/04 05:46:43;;;;;;;5.33;1.00;;;;;;;;;;5029660;28;20236;-60
2022/07/04 05:49:11;;;;;;;1.63;0.80;;;;;;;;;;5026326;28;20211;-60
2022/07/04 05:51:39;;;;;;;0.80;0.80;;;;;;;;;;5027708;28;20633;-60
2022/07/04 05:54:09;;;;;;;1.17;1.00;;;;;;;;;;5021993;28;20727;-60
2022/07/04 05:56:39;;;;;;;1.80;0.90;;;;;;;;;;5029463;28;20729;-60
2022/07/04 05:59:07;;;;;;;1.83;0.83;;;;;;;;;;5030017;28;20318;-60
2022/07/04 06:01:35;;;;;;;2.00;1.07;;;;;;;;;;5026551;28;20865;-60
2022/07/04 06:04:03;;;;;;;2.43;1.07;;;;;;;;;;5027140;28;20264;-60
2022/07/04 06:06:31;;;;;;;1.63;1.10;;;;;;;;;;5034779;28;20616;-60
2022/07/04 06:08:59;;;;;;;3.63;1.57;;;;;;;;;;5003970;28;20212;-60
2022/07/04 06:11:29;;;;;;;2.50;1.20;;;;;;;;;;5001039;28;20209;-59
2022/07/04 06:13:57;;;;;;;2.93;1.20;;;;;;;;;;5000874;28;20250;-60
2022/07/04 06:16:25;;;;;;;1.83;1.03;;;;;;;;;;5002242;28;20256;-60
2022/07/04 06:18:53;;;;;;;3.73;1.37;;;;;;;;;;5000813;28;20233;-60
2022/07/04 06:21:21;;;;;;;2.23;1.00;;;;;;;;;;5001063;28;20303;-60
2022/07/04 06:23:49;;;;;;;1.37;1.23;;;;;;;;;;5005431;28;20260;-60
2022/07/04 06:26:16;;;;;;;2.27;1.10;;;;;;;;;;5000722;28;20719;-60
2022/07/04 06:28:46;;;;;;;1.30;1.10;;;;;;;;;;5000662;28;20263;-60
2022/07/04 06:31:15;;;;;;;3.67;0.97;;;;;;;;;;5000723;28;20208;-60
2022/07/04 06:36:29;;;;;;;3.17;1.30;;;;;;;;;;5004051;28;20247;-60
2022/07/04 06:38:57;;;;;;;1.97;1.27;;;;;;;;;;5000930;28;20268;-61
2022/07/04 06:41:25;;;;;;;1.53;1.13;;;;;;;;;;5014025;28;20211;-61
2022/07/04 06:43:54;;;;;;;1.07;1.00;;;;;;;;;;5000371;28;20615;-60
2022/07/04 06:46:22;;;;;;;1.83;0.93;;;;;;;;;;5000413;28;20224;-60
2022/07/04 06:48:50;;;;;;;4.87;1.20;;;;;;;;;;5000259;28;20226;-61
2022/07/04 06:51:18;;;;;;;1.57;1.47;;;;;;;;;;5000506;28;20639;-60
2022/07/04 06:53:47;;;;;;;4.07;1.27;;;;;;;;;;5000267;28;20603;-60
2022/07/04 06:56:15;;;;;;;2.23;1.20;;;;;;;;;;5000446;28;20219;-60
2022/07/04 06:58:43;;;;;;;1.37;1.23;;;;;;;;;;5005286;28;20603;-60
2022/07/04 07:01:12;;;;;;;3.17;1.37;;;;;;;;;;5008083;28;20201;-60
2022/07/04 07:03:40;;;;;;;1.70;0.93;;;;;;;;;;5001153;28;20224;-60
2022/07/04 07:06:08;;;;;;;3.50;1.30;;;;;;;;;;5011111;28;20199;-61
2022/07/04 07:08:36;;;;;;;2.13;1.47;;;;;;;;;;5016964;28;20218;-60
2022/07/04 07:11:13;;;;;;;2.80;1.13;;;;;;;;;;5000355;28;20245;-60
2022/07/04 07:13:42;;;;;;;2.37;1.40;;;;;;;;;;4999786;28;20320;-60
2022/07/04 07:16:10;;;;;;;3.10;1.20;;;;;;;;;;5022216;28;20713;-60
2022/07/04 07:18:40;;;;;;;3.93;1.27;;;;;;;;;;5019759;28;20225;-60
2022/07/04 07:21:08;;;;;;;3.37;1.30;;;;;;;;;;5011321;28;20205;-60
2022/07/04 07:23:38;;;;;;;1.00;1.00;;;;;;;;;;5009608;28;20227;-60
2022/07/04 07:26:06;;;;;;;2.57;1.00;;;;;;;;;;4999868;28;20226;-60
2022/07/04 07:28:34;;;;;;;1.60;1.23;;;;;;;;;;5008052;28;20265;-60
2022/07/04 07:31:02;;;;;;;1.33;0.93;;;;;;;;;;4999382;28;20214;-60
2022/07/04 07:33:30;;;;;;;5.27;1.20;;;;;;;;;;5006645;28;20233;-59
2022/07/04 07:36:00;;;;;;;1.77;0.93;;;;;;;;;;5009904;28;20789;-59
2022/07/04 07:38:28;;;;;;;1.43;1.20;;;;;;;;;;5011039;28;20229;-60
2022/07/04 07:40:56;;;;;;;2.27;1.23;;;;;;;;;;5023072;28;20293;-60
2022/07/04 07:43:24;;;;;;;2.07;1.17;;;;;;;;;;5018583;28;20226;-60
2022/07/04 07:45:52;;;;;;;4.17;1.20;;;;;;;;;;5004489;28;20260;-59
2022/07/04 07:48:20;;;;;;;2.90;1.67;;;;;;;;;;5019053;28;20213;-59
2022/07/04 07:50:48;;;;;;;6.67;0.90;;;;;;;;;;5018683;28;20208;-59
2022/07/04 07:53:17;;;;;;;0.97;0.97;;;;;;;;;;5018919;28;20292;-59
2022/07/04 07:55:45;;;;;;;1.20;0.93;;;;;;;;;;5018901;28;20234;-59
2022/07/04 07:58:13;;;;;;;4.20;1.53;;;;;;;;;;5018022;28;20388;-59
2022/07/04 08:00:42;;;;;;;5.43;1.10;;;;;;;;;;5016992;28;20255;-61
2022/07/04 08:06:11;;;;;;;1.87;1.23;;;;;;;;;;5014879;28;20653;-60
2022/07/04 08:08:41;;;;;;;2.33;1.20;;;;;;;;;;5014802;28;20198;-60
2022/07/04 08:11:09;;;;;;;3.60;1.07;;;;;;;;;;5015391;28;20214;-60
2022/07/04 08:13:37;;;;;;;3.27;1.60;;;;;;;;;;5014270;28;20262;-60
2022/07/04 08:16:05;;;;;;;2.97;1.17;;;;;;;;;;5016447;28;20293;-61
2022/07/04 08:18:34;;;;;;;1.10;1.00;;;;;;;;;;5007505;28;20775;-61
2022/07/04 08:21:02;;;;;;;1.77;1.20;;;;;;;;;;4996829;28;20992;-60
2022/07/04 08:23:38;;;;;;;1.93;1.10;;;;;;;;;;5013053;28;20266;-60
2022/07/04 08:26:20;;;;;;;1.80;0.90;;;;;;;;;;5008793;28;20232;-61
2022/07/04 08:28:48;;;;;;;5.83;1.07;;;;;;;;;;5002985;28;20237;-61
2022/07/04 08:31:15;;;;;;;2.77;1.17;;;;;;;;;;5011936;28;20297;-61
2022/07/04 08:34:04;;;;;;;1.90;1.17;;;;;;;;;;5001768;28;20230;-61
2022/07/04 08:36:32;;;;;;;0.90;0.90;;;;;;;;;;4998497;28;20295;-60
2022/07/04 08:39:00;;;;;;;2.27;1.17;;;;;;;;;;5026339;28;20254;-61
2022/07/04 08:41:30;;;;;;;11.60;2.07;;;;;;;;;;5020596;28;20245;-60
2022/07/04 08:43:58;;;;;;;1.60;1.03;;;;;;;;;;4998358;28;20240;-60
2022/07/04 08:46:26;;;;;;;4.07;1.40;;;;;;;;;;5000416;28;20205;-60
2022/07/04 08:48:56;;;;;;;3.83;1.50;;;;;;;;;;5004798;28;20207;-60
2022/07/04 08:51:30;;;;;;;2.30;1.10;;;;;;;;;;5008038;28;20205;-60
2022/07/04 08:53:59;;;;;;;1.80;1.30;;;;;;;;;;5011934;28;20223;-60
2022/07/04 08:59:15;;;;;;;4.73;0.97;;;;;;;;;;4999225;28;20682;-60
2022/07/04 09:01:43;;;;;;;3.20;1.07;;;;;;;;;;4998311;28;20219;-60
2022/07/04 09:04:12;;;;;;;1.10;1.03;;;;;;;;;;5005274;28;20746;-60
2022/07/04 09:06:41;;;;;;;1.27;1.20;;;;;;;;;;5029299;28;20237;-60
2022/07/04 09:09:09;;;;;;;3.37;1.20;;;;;;;;;;4999674;28;20211;-60
2022/07/04 09:11:37;;;;;;;1.90;1.03;;;;;;;;;;5017446;28;20208;-60
2022/07/04 09:14:05;;;;;;;4.27;1.47;;;;;;;;;;5017568;28;20250;-60
2022/07/04 09:16:34;;;;;;;1.80;1.40;;;;;;;;;;5017731;28;20243;-60
2022/07/04 09:19:03;;;;;;;1.33;1.10;;;;;;;;;;5017919;28;20231;-60
2022/07/04 09:21:44;;;;;;;2.33;1.30;;;;;;;;;;5017582;28;20223;-60
2022/07/04 09:24:12;;;;;;;1.77;1.23;;;;;;;;;;5007916;28;20224;-60
2022/07/04 09:26:41;;;;;;;2.63;1.20;;;;;;;;;;4998048;28;20216;-60
2022/07/04 09:29:09;;;;;;;2.83;1.03;;;;;;;;;;4997839;28;20701;-60
2022/07/04 09:31:38;;;;;;;2.73;1.20;;;;;;;;;;4997858;28;20232;-60
2022/07/04 09:34:07;;;;;;;1.67;1.20;;;;;;;;;;5008224;28;20286;-60
2022/07/04 09:36:39;;;;;;;2.10;1.30;;;;;;;;;;4998159;28;20216;-60
2022/07/04 09:39:14;;;;;;;2.80;1.20;;;;;;;;;;4997805;28;20232;-60
2022/07/04 09:41:52;;;;;;;2.33;1.60;;;;;;;;;;5004646;28;20257;-60
2022/07/04 09:44:20;;;;;;;1.13;1.03;;;;;;;;;;4996962;28;20259;-60
2022/07/04 09:46:49;;;;;;;2.23;0.93;;;;;;;;;;4997799;28;20250;-60
2022/07/04 09:49:17;;;;;;;1.10;1.00;;;;;;;;;;4997447;28;20246;-60
2022/07/04 09:51:46;;;;;;;3.83;1.10;;;;;;;;;;4997530;28;20249;-60
2022/07/04 09:54:15;;;;;;;1.40;1.20;;;;;;;;;;4997831;28;20294;-61
2022/07/04 09:56:43;;;;;;;1.27;1.17;;;;;;;;;;4997491;28;20217;-61
2022/07/04 09:59:11;;;;;;;2.30;1.20;;;;;;;;;;4997182;28;20243;-60
2022/07/04 10:01:40;;;;;;;4.10;1.30;;;;;;;;;;4997157;28;20216;-59
2022/07/04 10:04:11;;;;;;;1.20;1.10;;;;;;;;;;5012797;28;20289;-61
2022/07/04 10:06:39;;;;;;;3.30;0.97;;;;;;;;;;5017129;28;20261;-61
2022/07/04 10:09:08;;;;;;;1.37;1.00;;;;;;;;;;5017066;28;20214;-61
2022/07/04 10:15:05;;;;;;;2.33;1.20;;;;;;;;;;5017204;28;20313;-61
2022/07/04 10:17:33;;;;;;;2.63;1.20;;;;;;;;;;5016870;28;20237;-61
2022/07/04 10:20:03;;;;;;;2.50;0.93;;;;;;;;;;5008214;28;20227;-61
2022/07/04 10:22:31;;;;;;;1.30;1.20;;;;;;;;;;4997560;28;20248;-61
2022/07/04 10:24:59;;;;;;;3.27;1.10;;;;;;;;;;5001700;28;20266;-61
2022/07/04 10:27:27;;;;;;;2.60;1.30;;;;;;;;;;5000656;28;20246;-61
2022/07/04 10:29:55;;;;;;;1.63;1.20;;;;;;;;;;5000857;28;20240;-60
2022/07/04 10:32:23;;;;;;;2.60;1.27;;;;;;;;;;5004612;28;20203;-60
2022/07/04 10:34:51;;;;;;;1.33;1.20;;;;;;;;;;5017982;28;20270;-59
2022/07/04 10:37:21;;;;;;;1.63;1.10;;;;;;;;;;5016305;28;20207;-60
2022/07/04 10:39:49;;;;;;;0.80;0.80;;;;;;;;;;5006707;28;20310;-59
2022/07/04 10:42:23;;;;;;;2.73;1.17;;;;;;;;;;5007314;28;20715;-58
2022/07/04 10:44:52;;;;;;;3.57;0.90;;;;;;;;;;5007650;28;20658;-59
2022/07/04 10:47:24;;;;;;;3.10;0.93;;;;;;;;;;5018974;28;20211;-59
2022/07/04 10:49:55;;;;;;;3.70;1.17;;;;;;;;;;5000472;28;20225;-59
2022/07/04 10:52:25;;;;;;;0.80;0.80;;;;;;;;;;5000419;28;20220;-59
2022/07/04 10:54:53;;;;;;;1.20;1.10;;;;;;;;;;5000163;28;20600;-59
2022/07/04 10:57:21;;;;;;;1.37;0.97;;;;;;;;;;5000026;28;20244;-60
2022/07/04 11:00:05;;;;;;;1.07;0.90;;;;;;;;;;4999673;28;20261;-59
2022/07/04 11:02:34;;;;;;;1.20;0.90;;;;;;;;;;5000149;28;20670;-59
2022/07/04 11:05:03;;;;;;;1.57;1.00;;;;;;;;;;5000253;28;20273;-59
2022/07/04 11:07:50;;;;;;;1.40;1.10;;;;;;;;;;5007173;28;20215;-59
2022/07/04 11:10:23;;;;;;;2.00;0.87;;;;;;;;;;5019744;28;20258;-59
2022/07/04 11:13:06;;;;;;;3.57;1.23;;;;;;;;;;5019519;28;20254;-59
2022/07/04 11:15:52;;;;;;;1.53;1.00;;;;;;;;;;5020003;28;20238;-59
2022/07/04 11:18:22;;;;;;;1.40;1.07;;;;;;;;;;5006232;28;20215;-59
2022/07/04 11:20:51;;;;;;;5.30;1.27;;;;;;;;;;4999792;28;20281;-59
2022/07/04 11:23:20;;;;;;;2.33;1.20;;;;;;;;;;5003681;28;20262;-59
2022/07/04 11:25:50;;;;;;;2.20;1.27;;;;;;;;;;4999575;28;20239;-59
2022/07/04 11:28:19;;;;;;;1.50;1.10;;;;;;;;;;5005390;28;20616;-59
2022/07/04 11:31:07;;;;;;;1.87;1.33;;;;;;;;;;4999545;28;20224;-59
2022/07/04 11:33:35;;;;;;;1.30;1.00;;;;;;;;;;5001334;28;20224;-59
2022/07/04 11:36:04;;;;;;;1.43;1.00;;;;;;;;;;5009991;28;20212;-59
2022/07/04 11:38:53;;;;;;;1.27;1.17;;;;;;;;;;5012012;28;20212;-58
2022/07/04 11:47:05;;;;;;;4.30;1.10;;;;;;;;;;5004860;28;20205;-58
2022/07/04 11:49:33;;;;;;;1.57;1.20;;;;;;;;;;4997821;28;20699;-60
2022/07/04 11:52:01;;;;;;;3.83;1.50;;;;;;;;;;4998272;28;20202;-60
2022/07/04 11:54:30;;;;;;;2.60;1.27;;;;;;;;;;5002505;28;20282;-60
2022/07/04 11:57:18;;;;;;;2.23;1.47;;;;;;;;;;5018716;28;20216;-60
2022/07/04 11:59:53;;;;;;;1.20;1.10;;;;;;;;;;5018163;28;20244;-60
2022/07/04 12:02:21;;;;;;;4.33;1.10;;;;;;;;;;5018348;28;20266;-58
2022/07/04 12:04:49;;;;;;;1.47;1.13;;;;;;;;;;5018711;28;20635;-58
2022/07/04 12:07:18;;;;;;;1.10;1.00;;;;;;;;;;5018708;28;20216;-59
2022/07/04 12:09:47;;;;;;;5.17;1.30;;;;;;;;;;5018451;28;20551;-58
2022/07/04 12:12:17;;;;;;;3.20;1.10;;;;;;;;;;5017966;28;20223;-58
2022/07/04 12:15:00;;;;;;;1.57;1.00;;;;;;;;;;5016592;28;20232;-58
2022/07/04 12:17:35;;;;;;;2.53;1.03;;;;;;;;;;5016560;28;20873;-58
2022/07/04 12:20:04;;;;;;;1.80;1.20;;;;;;;;;;5016847;28;20210;-58
2022/07/04 12:22:34;;;;;;;1.20;1.10;;;;;;;;;;5006755;28;20224;-58
2022/07/04 12:25:02;;;;;;;1.93;1.20;;;;;;;;;;5003350;28;20307;-58
2022/07/04 12:27:30;;;;;;;1.57;1.10;;;;;;;;;;4996517;28;20242;-58
2022/07/04 12:30:00;;;;;;;1.50;1.30;;;;;;;;;;5012418;28;20577;-58
2022/07/04 12:32:49;;;;;;;1.40;1.30;;;;;;;;;;5016957;28;20554;-58
2022/07/04 12:35:32;;;;;;;2.90;1.50;;;;;;;;;;5018173;28;20210;-59
2022/07/04 12:38:04;;;;;;;1.30;1.20;;;;;;;;;;4997031;28;20629;-58
2022/07/04 12:40:32;;;;;;;3.80;1.20;;;;;;;;;;5010301;28;20238;-58
2022/07/04 12:43:00;;;;;;;3.53;1.13;;;;;;;;;;4998849;28;20295;-58
2022/07/04 12:45:43;;;;;;;3.13;1.57;;;;;;;;;;5001925;28;20668;-58
2022/07/04 12:48:18;;;;;;;2.10;1.20;;;;;;;;;;5017540;28;20250;-59
2022/07/04 12:50:47;;;;;;;1.47;1.00;;;;;;;;;;5017853;28;20215;-57
2022/07/04 12:53:15;;;;;;;1.10;1.00;;;;;;;;;;5018050;28;20233;-59
2022/07/04 12:55:43;;;;;;;3.00;1.07;;;;;;;;;;5018151;28;20211;-59
2022/07/04 12:58:11;;;;;;;2.87;1.23;;;;;;;;;;5017510;28;20605;-59
2022/07/04 13:00:39;;;;;;;2.63;1.30;;;;;;;;;;5017584;28;20670;-57
2022/07/04 13:03:09;;;;;;;2.00;1.20;;;;;;;;;;5017084;28;20237;-59
2022/07/04 13:05:38;;;;;;;3.33;1.00;;;;;;;;;;5012549;28;20212;-57
2022/07/04 13:08:07;;;;;;;2.20;0.90;;;;;;;;;;4998065;28;20211;-58
2022/07/04 13:10:35;;;;;;;4.00;0.93;;;;;;;;;;4998217;28;20212;-60
2022/07/04 13:13:02;;;;;;;2.23;1.20;;;;;;;;;;4997883;28;20235;-58
2022/07/04 13:15:30;;;;;;;1.27;1.10;;;;;;;;;;4998145;28;20214;-59
2022/07/04 13:17:58;;;;;;;3.60;1.20;;;;;;;;;;4998165;28;20249;-57
2022/07/04 13:20:27;;;;;;;2.60;1.00;;;;;;;;;;5004873;28;20245;-57
2022/07/04 13:22:55;;;;;;;1.70;0.93;;;;;;;;;;5018676;28;20230;-56
2022/07/04 13:25:23;;;;;;;1.13;0.90;;;;;;;;;;4998004;28;20213;-57
2022/07/04 13:27:51;;;;;;;3.33;1.03;;;;;;;;;;4997780;28;20218;-56
2022/07/04 13:30:19;;;;;;;0.80;0.80;;;;;;;;;;4997818;28;20571;-57
2022/07/04 13:32:47;;;;;;;1.10;1.00;;;;;;;;;;4997914;28;20215;-60
2022/07/04 13:35:15;;;;;;;5.17;1.27;;;;;;;;;;5013004;28;20204;-61
2022/07/04 13:37:45;;;;;;;2.00;1.10;;;;;;;;;;4998059;28;20247;-61
2022/07/04 13:40:13;;;;;;;1.10;1.00;;;;;;;;;;5006927;28;20200;-60
2022/07/04 13:42:59;;;;;;;1.57;1.20;;;;;;;;;;5000920;28;20318;-60
2022/07/04 13:45:28;;;;;;;1.50;1.00;;;;;;;;;;4997998;28;20215;-61
2022/07/04 13:47:56;;;;;;;1.27;1.17;;;;;;;;;;4998036;28;20206;-61
2022/07/04 13:50:24;;;;;;;2.93;1.10;;;;;;;;;;4997412;28;20210;-62
2022/07/04 13:52:53;;;;;;;1.33;0.80;;;;;;;;;;5004347;28;20212;-60
2022/07/04 13:55:22;;;;;;;2.67;1.20;;;;;;;;;;5017447;28;20282;-61
2022/07/04 13:57:50;;;;;;;1.63;1.10;;;;;;;;;;5016974;28;20248;-61
2022/07/04 14:00:18;;;;;;;1.45;0.90;;;;;;;;;;5020267;28;20208;-61
2022/07/04 14:02:46;;;;;;;1.35;1.10;;;;;;;;;;5021114;28;20233;-61
2022/07/04 14:05:14;;;;;;;1.90;0.90;;;;;;;;;;5020894;28;20279;-62
2022/07/04 14:07:42;;;;;;;3.60;1.08;;;;;;;;;;5020978;28;20211;-61
2022/07/04 14:10:12;;;;;;;2.70;1.20;;;;;;;;;;5020700;28;20258;-61
2022/07/04 14:12:40;;;;;;;0.90;0.90;;;;;;;;;;5021068;28;20221;-61
2022/07/04 14:15:09;;;;;;;1.20;0.95;;;;;;;;;;5020740;28;20575;-61
2022/07/04 14:17:37;;;;;;;1.20;0.90;;;;;;;;;;5020986;28;20263;-61
2022/07/04 14:20:07;;;;;;;2.72;0.80;;;;;;;;;;5020988;28;20226;-61
2022/07/04 14:22:35;;;;;;;1.83;1.42;;;;;;;;;;5020891;28;20273;-62
2022/07/04 14:25:03;;;;;;;5.50;1.20;;;;;;;;;;5003963;28;20278;-61
2022/07/04 14:27:32;;;;;;;1.50;1.13;;;;;;;;;;5000398;28;20688;-61
2022/07/04 14:30:00;;;;;;;1.02;1.02;;;;;;;;;;5014974;28;20640;-62
2022/07/04 14:32:28;;;;;;;1.55;1.13;;;;;;;;;;5017179;28;20192;-61
2022/07/04 14:34:56;;;;;;;1.58;0.80;;;;;;;;;;5012839;28;20265;-61
2022/07/04 14:37:24;;;;;;;7.32;1.08;;;;;;;;;;5017267;28;20238;-61
2022/07/04 14:39:52;;;;;;;1.85;0.88;;;;;;;;;;5020104;28;20233;-61
2022/07/04 14:42:20;;;;;;;6.95;1.20;;;;;;;;;;5016182;28;20230;-61
2022/07/04 14:44:50;;;;;;;3.28;1.25;;;;;;;;;;5011708;28;20663;-61
2022/07/04 14:47:18;;;;;;;2.60;0.85;;;;;;;;;;5013615;28;20234;-61
2022/07/04 14:49:46;;;;;;;1.48;1.20;;;;;;;;;;5008570;28;20200;-62
2022/07/04 14:52:14;;;;;;;1.00;0.95;;;;;;;;;;5010546;28;20235;-61
2022/07/04 14:54:42;;;;;;;1.00;1.00;;;;;;;;;;5000451;28;20257;-61
2022/07/04 14:57:10;;;;;;;5.00;1.20;;;;;;;;;;5000377;28;20244;-61
2022/07/04 14:59:38;;;;;;;1.55;0.85;;;;;;;;;;5000000;28;20281;-61
2022/07/04 15:02:07;;;;;;;0.80;0.80;;;;;;;;;;5000394;28;20232;-61
2022/07/04 15:04:35;;;;;;;2.20;1.17;;;;;;;;;;5000378;28;20234;-61
2022/07/04 15:07:03;;;;;;;1.58;1.15;;;;;;;;;;5000444;28;20292;-61
2022/07/04 15:09:31;;;;;;;0.97;0.93;;;;;;;;;;4999735;28;20644;-61
2022/07/04 15:11:59;;;;;;;1.88;1.30;;;;;;;;;;4999989;28;20675;-61
2022/07/04 15:14:27;;;;;;;2.35;1.30;;;;;;;;;;4999787;28;20669;-61
2022/07/04 15:16:55;;;;;;;3.30;1.50;;;;;;;;;;5003282;28;20209;-60
2022/07/04 15:19:25;;;;;;;3.17;1.17;;;;;;;;;;5000278;28;20272;-60
2022/07/04 15:24:38;;;;;;;1.15;1.05;;;;;;;;;;5001811;28;20315;-62